createdAt,value
2017-09-23T00:00:27.280Z,19.70
2017-09-23T00:02:56.535Z,16.37
2017-09-23T00:05:25.784Z,22.77
2017-09-23T00:07:55.071Z,18.92
2017-09-23T00:10:24.328Z,19.70
2017-09-23T00:12:53.579Z,21.12
2017-09-23T00:15:22.859Z,22.40
2017-09-23T00:17:52.110Z,19.50
2017-09-23T00:20:21.532Z,22.35
2017-09-23T00:22:50.787Z,26.30
2017-09-23T00:25:20.039Z,19.87
2017-09-23T00:27:49.312Z,24.05
2017-09-23T00:30:18.562Z,17.98
2017-09-23T00:32:47.843Z,16.92
2017-09-23T00:35:17.864Z,15.80
2017-09-23T00:37:48.080Z,14.60
2017-09-23T00:40:18.098Z,13.95
2017-09-23T00:42:48.304Z,14.48
2017-09-23T00:45:17.555Z,17.60
2017-09-23T00:47:46.807Z,15.88
2017-09-23T00:50:16.108Z,21.30
2017-09-23T00:52:45.379Z,17.25
2017-09-23T00:55:14.611Z,17.15
2017-09-23T00:57:43.883Z,16.08
2017-09-23T01:03:31.628Z,20.20
2017-09-23T01:06:00.870Z,13.80
2017-09-23T01:08:31.130Z,13.57
2017-09-23T01:11:01.311Z,17.10
2017-09-23T01:13:31.324Z,16.10
2017-09-23T01:16:01.384Z,15.52
2017-09-23T01:18:30.635Z,18.92
2017-09-23T01:21:00.815Z,18.08
2017-09-23T01:23:30.064Z,19.52
2017-09-23T01:26:00.095Z,19.12
2017-09-23T01:28:29.353Z,20.00
2017-09-23T01:30:58.631Z,19.15
2017-09-23T01:33:27.880Z,20.27
2017-09-23T01:35:58.868Z,24.08
2017-09-23T01:41:03.474Z,18.90
2017-09-23T01:43:32.723Z,20.30
2017-09-23T01:46:01.971Z,18.23
2017-09-23T01:48:32.181Z,22.77
2017-09-23T01:51:01.424Z,19.73
2017-09-23T01:53:30.679Z,16.58
2017-09-23T01:55:59.952Z,18.87
2017-09-23T01:58:29.410Z,18.00
2017-09-23T02:00:58.663Z,18.42
2017-09-23T02:03:27.939Z,17.30
2017-09-23T02:05:57.187Z,16.58
2017-09-23T02:08:27.216Z,17.70
2017-09-23T02:10:57.311Z,19.95
2017-09-23T02:13:26.556Z,16.60
2017-09-23T02:15:55.863Z,19.95
2017-09-23T02:18:25.123Z,17.30
2017-09-23T02:20:55.140Z,20.45
2017-09-23T02:23:24.573Z,18.50
2017-09-23T02:25:53.837Z,21.52
2017-09-23T02:28:23.073Z,17.77
2017-09-23T02:30:52.342Z,19.23
2017-09-23T02:33:21.591Z,19.50
2017-09-23T02:35:50.843Z,17.42
2017-09-23T02:38:20.880Z,16.02
2017-09-23T02:40:50.147Z,22.73
2017-09-23T02:43:19.400Z,16.37
2017-09-23T02:45:48.675Z,16.55
2017-09-23T02:48:18.690Z,16.65
2017-09-23T02:50:48.915Z,15.63
2017-09-23T02:53:18.936Z,13.80
2017-09-23T02:55:48.222Z,15.48
2017-09-23T02:58:18.233Z,14.87
2017-09-23T03:00:47.573Z,16.62
2017-09-23T03:03:17.595Z,15.73
2017-09-23T03:05:46.879Z,19.92
2017-09-23T03:08:16.135Z,15.38
2017-09-23T03:10:45.375Z,14.05
2017-09-23T03:13:14.680Z,14.38
2017-09-23T03:15:44.055Z,13.05
2017-09-23T03:18:13.303Z,13.82
2017-09-23T03:20:42.633Z,15.68
2017-09-23T03:23:11.870Z,20.02
2017-09-23T03:25:41.944Z,17.52
2017-09-23T03:28:11.193Z,13.85
2017-09-23T03:30:41.232Z,15.70
2017-09-23T03:33:10.495Z,15.40
2017-09-23T03:35:39.747Z,14.25
2017-09-23T03:38:09.186Z,16.65
2017-09-23T03:40:38.445Z,15.60
2017-09-23T03:43:07.684Z,18.35
2017-09-23T03:45:36.964Z,12.48
2017-09-23T03:48:06.210Z,16.20
2017-09-23T03:50:36.272Z,18.45
2017-09-23T03:53:05.515Z,13.10
2017-09-23T03:55:35.555Z,13.38
2017-09-23T03:58:05.592Z,16.58
2017-09-23T04:00:35.775Z,13.88
2017-09-23T04:03:05.780Z,15.20
2017-09-23T04:05:35.059Z,16.50
2017-09-23T04:08:04.316Z,12.88
2017-09-23T04:10:33.582Z,14.63
2017-09-23T04:13:02.839Z,13.65
2017-09-23T04:15:32.159Z,16.83
2017-09-23T04:18:01.480Z,16.30
2017-09-23T04:20:30.729Z,15.95
2017-09-23T04:23:00.770Z,13.27
2017-09-23T04:25:30.021Z,14.63
2017-09-23T04:28:00.062Z,13.00
2017-09-23T04:30:29.319Z,16.77
2017-09-23T04:32:58.565Z,13.27
2017-09-23T04:35:27.822Z,15.00
2017-09-23T04:37:57.131Z,15.45
2017-09-23T04:40:26.444Z,15.38
2017-09-23T04:42:56.450Z,14.90
2017-09-23T04:45:26.506Z,17.73
2017-09-23T04:47:55.754Z,14.80
2017-09-23T04:50:24.999Z,18.48
2017-09-23T04:52:54.272Z,17.27
2017-09-23T04:55:23.543Z,14.45
2017-09-23T04:57:52.822Z,13.98
2017-09-23T05:00:22.071Z,13.95
2017-09-23T05:02:52.104Z,16.98
2017-09-23T05:05:22.302Z,12.93
2017-09-23T05:07:51.551Z,14.35
2017-09-23T05:10:26.255Z,13.05
2017-09-23T05:13:11.321Z,15.73
2017-09-23T05:18:34.004Z,15.70
2017-09-23T05:21:17.861Z,22.30
2017-09-23T05:23:55.370Z,12.32
2017-09-23T05:26:47.291Z,14.98
2017-09-23T05:32:59.233Z,16.17
2017-09-23T05:35:51.136Z,17.60
2017-09-23T05:38:32.239Z,21.37
2017-09-23T05:41:01.635Z,14.52
2017-09-23T05:43:37.620Z,17.70
2017-09-23T05:46:06.924Z,16.25
2017-09-23T05:48:36.187Z,16.30
2017-09-23T05:51:05.669Z,15.63
2017-09-23T05:53:34.941Z,17.60
2017-09-23T05:56:04.967Z,12.98
2017-09-23T05:58:35.310Z,12.65
2017-09-23T06:01:04.551Z,15.40
2017-09-23T06:03:33.818Z,16.10
2017-09-23T06:06:03.118Z,12.50
2017-09-23T06:08:32.365Z,14.48
2017-09-23T06:11:01.626Z,22.55
2017-09-23T06:13:31.005Z,12.50
2017-09-23T06:16:01.170Z,17.98
2017-09-23T06:18:30.706Z,17.40
2017-09-23T06:21:00.103Z,15.68
2017-09-23T06:23:30.091Z,16.80
2017-09-23T06:25:59.560Z,16.20
2017-09-23T06:28:29.102Z,12.95
2017-09-23T06:30:58.639Z,31.30
2017-09-23T06:33:28.334Z,16.75
2017-09-23T06:35:58.674Z,16.12
2017-09-23T06:38:28.328Z,16.15
2017-09-23T06:40:59.307Z,15.68
2017-09-23T06:43:29.010Z,13.82
2017-09-23T06:45:59.159Z,15.68
2017-09-23T06:48:28.979Z,19.33
2017-09-23T06:50:59.164Z,15.40
2017-09-23T06:53:29.180Z,17.70
2017-09-23T06:55:58.517Z,19.87
2017-09-23T06:58:27.887Z,20.40
2017-09-23T07:00:57.161Z,27.30
2017-09-23T07:03:26.492Z,22.10
2017-09-23T07:05:56.009Z,21.12
2017-09-23T07:08:25.365Z,24.92
2017-09-23T07:10:55.118Z,21.52
2017-09-23T07:13:24.707Z,22.08
2017-09-23T07:15:54.196Z,22.87
2017-09-23T07:18:23.817Z,22.95
2017-09-23T07:20:53.867Z,22.55
2017-09-23T07:23:24.196Z,23.75
2017-09-23T07:25:54.122Z,26.05
2017-09-23T07:28:23.507Z,21.87
2017-09-23T07:30:52.936Z,19.92
2017-09-23T07:33:22.409Z,21.25
2017-09-23T07:35:51.871Z,24.42
2017-09-23T07:38:21.257Z,24.05
2017-09-23T07:40:50.513Z,22.23
2017-09-23T07:43:19.781Z,21.92
2017-09-23T07:45:49.243Z,24.85
2017-09-23T07:48:18.973Z,23.60
2017-09-23T07:50:48.441Z,23.08
2017-09-23T07:53:17.807Z,24.58
2017-09-23T07:55:47.526Z,23.33
2017-09-23T07:58:16.990Z,23.92
2017-09-23T08:00:46.547Z,21.35
2017-09-23T08:03:16.095Z,24.45
2017-09-23T08:05:45.490Z,23.23
2017-09-23T08:08:14.878Z,25.35
2017-09-23T08:10:44.488Z,26.73
2017-09-23T08:13:13.948Z,24.73
2017-09-23T08:15:44.051Z,26.17
2017-09-23T08:18:13.447Z,24.08
2017-09-23T08:20:42.784Z,27.58
2017-09-23T08:23:12.563Z,28.45
2017-09-23T08:25:41.895Z,22.80
2017-09-23T08:28:12.165Z,27.48
2017-09-23T08:30:42.396Z,26.65
2017-09-23T08:33:11.844Z,25.42
2017-09-23T08:35:42.106Z,25.10
2017-09-23T08:38:12.281Z,31.00
2017-09-23T08:40:41.891Z,27.37
2017-09-23T08:43:11.246Z,30.15
2017-09-23T08:45:40.645Z,27.75
2017-09-23T08:48:09.926Z,29.75
2017-09-23T08:50:39.288Z,31.73
2017-09-23T08:53:09.736Z,25.45
2017-09-23T08:55:38.995Z,29.92
2017-09-23T08:58:08.254Z,31.10
2017-09-23T09:00:37.564Z,32.03
2017-09-23T09:03:06.811Z,30.52
2017-09-23T09:05:36.987Z,32.88
2017-09-23T09:08:06.248Z,32.38
2017-09-23T09:10:35.512Z,34.58
2017-09-23T09:13:04.957Z,28.30
2017-09-23T09:15:34.215Z,31.80
2017-09-23T09:18:03.486Z,38.72
2017-09-23T09:20:32.803Z,29.90
2017-09-23T09:23:02.063Z,34.08
2017-09-23T09:25:31.343Z,33.15
2017-09-23T09:28:01.563Z,41.13
2017-09-23T09:31:00.855Z,34.05
2017-09-23T09:33:31.203Z,33.30
2017-09-23T09:36:01.254Z,38.55
2017-09-23T09:38:30.736Z,38.47
2017-09-23T09:41:00.040Z,32.95
2017-09-23T09:43:29.549Z,33.58
2017-09-23T09:45:59.017Z,34.17
2017-09-23T09:48:28.454Z,31.87
2017-09-23T09:50:57.973Z,32.05
2017-09-23T09:53:28.275Z,30.80
2017-09-23T09:55:57.834Z,33.47
2017-09-23T09:58:27.167Z,33.75
2017-09-23T10:00:56.533Z,34.25
2017-09-23T10:03:26.156Z,32.72
2017-09-23T10:05:55.495Z,36.65
2017-09-23T10:08:24.864Z,27.83
2017-09-23T10:10:54.900Z,34.90
2017-09-23T10:16:24.831Z,33.30
2017-09-23T10:18:54.080Z,33.83
2017-09-23T10:21:23.334Z,51.60
2017-09-23T10:23:52.632Z,38.72
2017-09-23T10:26:21.879Z,39.88
2017-09-23T10:28:51.118Z,35.95
2017-09-23T10:31:20.394Z,33.85
2017-09-23T10:33:50.417Z,34.20
2017-09-23T10:36:20.454Z,31.83
2017-09-23T10:38:49.888Z,30.30
2017-09-23T10:41:19.143Z,32.42
2017-09-23T10:43:49.200Z,33.38
2017-09-23T10:46:18.463Z,36.97
2017-09-23T10:48:47.726Z,27.90
2017-09-23T10:51:17.127Z,27.67
2017-09-23T10:53:46.388Z,24.52
2017-09-23T10:56:15.642Z,22.52
2017-09-23T10:58:45.064Z,25.75
2017-09-23T11:01:14.315Z,20.65
2017-09-23T11:03:43.562Z,24.30
2017-09-23T11:06:13.754Z,19.55
2017-09-23T11:08:43.000Z,22.37
2017-09-23T11:11:12.301Z,17.10
2017-09-23T11:13:41.539Z,25.33
2017-09-23T11:16:10.823Z,17.50
2017-09-23T11:18:40.062Z,18.65
2017-09-23T11:21:09.368Z,19.52
2017-09-23T11:23:38.617Z,18.92
2017-09-23T11:26:07.866Z,19.02
2017-09-23T11:28:37.154Z,18.05
2017-09-23T11:31:06.404Z,23.58
2017-09-23T11:33:35.662Z,22.52
2017-09-23T11:36:04.939Z,19.50
2017-09-23T11:38:34.188Z,16.85
2017-09-23T11:41:04.254Z,19.55
2017-09-23T11:43:33.563Z,23.60
2017-09-23T11:46:02.811Z,20.48
2017-09-23T11:48:33.030Z,21.83
2017-09-23T11:51:03.044Z,20.30
2017-09-23T11:53:33.078Z,21.60
2017-09-23T11:56:03.274Z,22.33
2017-09-23T11:58:32.532Z,22.02
2017-09-23T12:01:01.830Z,19.65
2017-09-23T12:03:31.242Z,21.17
2017-09-23T12:06:00.495Z,20.20
2017-09-23T12:08:30.664Z,20.12
2017-09-23T12:10:59.919Z,16.77
2017-09-23T12:13:29.177Z,16.60
2017-09-23T12:15:58.595Z,16.50
2017-09-23T12:18:27.872Z,16.85
2017-09-23T12:20:57.324Z,15.98
2017-09-23T12:23:26.915Z,15.30
2017-09-23T12:25:56.199Z,18.95
2017-09-23T12:28:25.447Z,18.10
2017-09-23T12:30:58.939Z,15.68
2017-09-23T12:33:28.836Z,14.75
2017-09-23T12:35:58.284Z,15.80
2017-09-23T12:38:27.539Z,17.00
2017-09-23T12:40:57.700Z,16.50
2017-09-23T12:43:26.935Z,16.15
2017-09-23T12:45:58.444Z,16.75
2017-09-23T12:48:27.670Z,16.40
2017-09-23T12:50:57.120Z,16.02
2017-09-23T12:53:26.593Z,18.35
2017-09-23T12:55:55.811Z,16.20
2017-09-23T12:58:25.104Z,13.95
2017-09-23T13:00:54.361Z,12.98
2017-09-23T13:03:23.623Z,14.90
2017-09-23T13:05:53.819Z,16.23
2017-09-23T13:08:23.071Z,15.35
2017-09-23T13:10:52.335Z,16.15
2017-09-23T13:13:21.788Z,14.50
2017-09-23T13:15:51.032Z,18.00
2017-09-23T13:18:20.289Z,18.30
2017-09-23T13:20:49.583Z,14.02
2017-09-23T13:23:18.838Z,14.98
2017-09-23T13:25:52.065Z,12.37
2017-09-23T13:28:22.314Z,13.62
2017-09-23T13:30:51.621Z,16.50
2017-09-23T13:33:22.375Z,18.08
2017-09-23T13:35:51.714Z,15.90
2017-09-23T13:38:21.047Z,15.10
2017-09-23T13:40:50.518Z,10.60
2017-09-23T13:43:20.532Z,15.15
2017-09-23T13:45:49.816Z,10.43
2017-09-23T13:48:19.089Z,11.05
2017-09-23T13:50:48.303Z,10.68
2017-09-23T13:53:17.579Z,9.70
2017-09-23T13:55:46.841Z,9.45
2017-09-23T13:58:16.082Z,8.35
2017-09-23T14:00:45.371Z,4.90
2017-09-23T14:03:14.654Z,9.70
2017-09-23T14:05:43.868Z,9.50
2017-09-23T14:08:13.200Z,10.57
2017-09-23T14:10:42.528Z,11.12
2017-09-23T14:13:11.765Z,13.90
2017-09-23T14:15:41.047Z,9.57
2017-09-23T14:18:10.300Z,10.20
2017-09-23T14:20:39.574Z,16.30
2017-09-23T14:23:08.884Z,10.77
2017-09-23T14:25:38.134Z,10.82
2017-09-23T14:28:08.184Z,8.38
2017-09-23T14:30:37.520Z,8.75
2017-09-23T14:33:06.782Z,11.50
2017-09-23T14:35:36.219Z,12.93
2017-09-23T14:38:05.471Z,11.70
2017-09-23T14:40:34.731Z,10.00
2017-09-23T14:43:03.991Z,10.85
2017-09-23T14:45:33.403Z,9.93
2017-09-23T14:48:02.651Z,9.57
2017-09-23T14:50:31.932Z,9.70
2017-09-23T14:53:01.232Z,9.10
2017-09-23T14:55:30.478Z,11.70
2017-09-23T14:57:59.723Z,8.65
2017-09-23T15:00:29.126Z,9.43
2017-09-23T15:02:58.390Z,10.20
2017-09-23T15:05:27.687Z,8.55
2017-09-23T15:07:57.400Z,8.93
2017-09-23T15:10:27.403Z,8.88
2017-09-23T15:12:56.711Z,8.93
2017-09-23T15:15:25.968Z,9.95
2017-09-23T15:17:55.211Z,10.23
2017-09-23T15:20:25.432Z,12.65
2017-09-23T15:22:54.676Z,12.85
2017-09-23T15:25:23.995Z,10.85
2017-09-23T15:27:53.452Z,10.50
2017-09-23T15:30:23.459Z,9.82
2017-09-23T15:32:53.504Z,12.23
2017-09-23T15:35:22.748Z,9.38
2017-09-23T15:37:51.995Z,9.00
2017-09-23T15:40:21.583Z,7.60
2017-09-23T15:42:52.207Z,9.00
2017-09-23T15:45:21.519Z,11.00
2017-09-23T15:47:51.564Z,8.70
2017-09-23T15:50:21.323Z,8.90
2017-09-23T15:52:50.759Z,9.13
2017-09-23T15:55:20.041Z,8.50
2017-09-23T15:57:49.339Z,9.93
2017-09-23T16:00:18.595Z,10.63
2017-09-23T16:02:48.033Z,10.73
2017-09-23T16:05:17.278Z,9.05
2017-09-23T16:07:46.539Z,10.70
2017-09-23T16:10:15.848Z,12.37
2017-09-23T16:12:45.106Z,9.18
2017-09-23T16:15:14.363Z,8.95
2017-09-23T16:17:43.639Z,9.10
2017-09-23T16:20:12.880Z,9.80
2017-09-23T16:22:42.125Z,8.73
2017-09-23T16:25:11.581Z,9.95
2017-09-23T16:27:41.585Z,12.13
2017-09-23T16:30:11.791Z,9.48
2017-09-23T16:32:41.023Z,12.95
2017-09-23T16:35:10.267Z,9.90
2017-09-23T16:37:39.568Z,10.65
2017-09-23T16:40:08.826Z,12.85
2017-09-23T16:42:39.003Z,11.23
2017-09-23T16:45:08.264Z,13.25
2017-09-23T16:47:37.510Z,10.27
2017-09-23T16:50:06.803Z,11.18
2017-09-23T16:52:36.060Z,13.70
2017-09-23T16:55:05.290Z,14.70
2017-09-23T16:57:34.591Z,12.65
2017-09-23T17:00:03.855Z,13.05
2017-09-23T17:02:33.099Z,9.52
2017-09-23T17:05:02.578Z,12.93
2017-09-23T17:07:31.841Z,14.57
2017-09-23T17:10:02.064Z,10.45
2017-09-23T17:12:31.279Z,11.80
2017-09-23T17:15:00.527Z,12.48
2017-09-23T17:17:29.808Z,16.15
2017-09-23T17:19:59.065Z,15.93
2017-09-23T17:22:29.095Z,10.43
2017-09-23T17:24:58.396Z,11.38
2017-09-23T17:27:27.648Z,13.52
2017-09-23T17:29:56.915Z,13.27
2017-09-23T17:32:26.179Z,14.25
2017-09-23T17:34:56.194Z,15.93
2017-09-23T17:37:26.286Z,15.13
2017-09-23T17:39:55.532Z,12.35
2017-09-23T17:42:24.793Z,11.63
2017-09-23T17:44:54.097Z,15.68
2017-09-23T17:47:23.336Z,12.77
2017-09-23T17:49:52.595Z,12.10
2017-09-23T17:52:21.906Z,17.23
2017-09-23T17:54:51.155Z,14.60
2017-09-23T17:57:20.424Z,11.95
2017-09-23T17:59:49.963Z,14.63
2017-09-23T18:02:19.207Z,17.42
2017-09-23T18:04:49.271Z,12.32
2017-09-23T18:07:18.530Z,13.65
2017-09-23T18:09:48.776Z,19.80
2017-09-23T18:12:18.032Z,14.05
2017-09-23T18:14:47.286Z,18.37
2017-09-23T18:17:16.575Z,15.35
2017-09-23T18:19:45.819Z,14.20
2017-09-23T18:22:15.070Z,20.98
2017-09-23T18:24:44.360Z,22.77
2017-09-23T18:27:14.389Z,17.23
2017-09-23T18:29:44.585Z,15.55
2017-09-23T18:32:13.839Z,19.60
2017-09-23T18:34:43.084Z,14.38
2017-09-23T18:37:13.583Z,27.73
2017-09-23T18:39:42.827Z,18.87
2017-09-23T18:42:13.010Z,19.90
2017-09-23T18:44:42.272Z,27.52
2017-09-23T18:47:11.528Z,17.12
2017-09-23T18:49:40.823Z,15.77
2017-09-23T18:52:10.071Z,17.15
2017-09-23T18:54:39.325Z,18.80
2017-09-23T18:57:08.796Z,17.75
2017-09-23T18:59:38.061Z,16.58
2017-09-23T19:02:08.111Z,16.55
2017-09-23T19:04:37.368Z,16.50
2017-09-23T19:07:07.400Z,16.52
2017-09-23T19:09:37.455Z,18.10
2017-09-23T19:12:06.720Z,19.00
2017-09-23T19:14:35.969Z,20.30
2017-09-23T19:17:05.308Z,25.55
2017-09-23T19:19:35.324Z,17.87
2017-09-23T19:22:05.392Z,18.70
2017-09-23T19:24:34.647Z,19.83
2017-09-23T19:27:04.851Z,20.40
2017-09-23T19:29:34.119Z,23.02
2017-09-23T19:32:03.391Z,25.37
2017-09-23T19:34:32.672Z,20.40
2017-09-23T19:37:02.692Z,22.75
2017-09-23T19:39:32.991Z,18.98
2017-09-23T19:42:02.252Z,20.77
2017-09-23T19:44:31.497Z,22.85
2017-09-23T19:47:00.775Z,28.08
2017-09-23T19:49:30.039Z,19.65
2017-09-23T19:52:00.108Z,28.58
2017-09-23T19:54:29.355Z,27.17
2017-09-23T19:56:58.611Z,21.70
2017-09-23T19:59:28.031Z,21.20
2017-09-23T20:01:57.292Z,23.33
2017-09-23T20:04:26.544Z,19.65
2017-09-23T20:06:55.812Z,17.52
2017-09-23T20:09:25.067Z,20.90
2017-09-23T20:11:55.139Z,19.58
2017-09-23T20:14:24.388Z,20.58
2017-09-23T20:16:54.423Z,23.10
2017-09-23T20:19:23.691Z,22.52
2017-09-23T20:21:52.939Z,22.62
2017-09-23T20:24:22.209Z,19.48
2017-09-23T20:26:52.225Z,26.73
2017-09-23T20:29:22.287Z,23.27
2017-09-23T20:31:51.530Z,20.30
2017-09-23T20:34:21.605Z,26.20
2017-09-23T20:36:50.847Z,21.40
2017-09-23T20:39:20.102Z,22.40
2017-09-23T20:41:50.165Z,21.05
2017-09-23T20:44:19.414Z,23.30
2017-09-23T20:46:48.668Z,20.50
2017-09-23T20:49:17.991Z,22.65
2017-09-23T20:51:48.006Z,28.62
2017-09-23T20:54:18.040Z,24.42
2017-09-23T20:56:47.317Z,29.98
2017-09-23T20:59:17.328Z,21.73
2017-09-23T21:01:47.551Z,26.70
2017-09-23T21:04:17.568Z,22.50
2017-09-23T21:06:47.613Z,22.20
2017-09-23T21:09:16.867Z,23.98
2017-09-23T21:11:46.140Z,22.35
2017-09-23T21:14:15.435Z,23.15
2017-09-23T21:16:44.684Z,25.98
2017-09-23T21:19:13.978Z,21.25
2017-09-23T21:21:43.243Z,20.33
2017-09-23T21:24:12.512Z,28.38
2017-09-23T21:26:41.767Z,25.20
2017-09-23T21:29:11.059Z,26.42
2017-09-23T21:31:40.312Z,23.95
2017-09-23T21:34:09.560Z,21.15
2017-09-23T21:36:38.860Z,27.23
2017-09-23T21:39:08.113Z,24.02
2017-09-23T21:41:37.371Z,20.67
2017-09-23T21:44:06.793Z,25.67
2017-09-23T21:46:36.051Z,24.40
2017-09-23T21:49:06.180Z,25.10
2017-09-23T21:51:36.203Z,21.02
2017-09-23T21:54:05.491Z,27.58
2017-09-23T21:56:35.519Z,21.62
2017-09-23T21:59:04.768Z,23.30
2017-09-23T22:01:34.083Z,23.77
2017-09-23T22:04:03.363Z,24.63
2017-09-23T22:06:32.615Z,23.33
2017-09-23T22:09:02.799Z,24.15
2017-09-23T22:11:32.056Z,21.58
2017-09-23T22:14:01.308Z,22.83
2017-09-23T22:16:30.581Z,23.77
2017-09-23T22:18:59.835Z,21.90
2017-09-23T22:21:29.878Z,23.27
2017-09-23T22:23:59.133Z,28.95
2017-09-23T22:26:28.388Z,22.60
2017-09-23T22:28:57.662Z,25.42
2017-09-23T22:31:26.927Z,28.17
2017-09-23T22:33:56.197Z,24.23
2017-09-23T22:36:25.594Z,25.30
2017-09-23T22:38:54.839Z,22.23
2017-09-23T22:41:24.875Z,21.98
2017-09-23T22:43:54.895Z,23.62
2017-09-23T22:46:24.924Z,25.25
2017-09-23T22:48:54.349Z,27.02
2017-09-23T22:51:23.602Z,27.48
2017-09-23T22:53:52.871Z,22.25
2017-09-23T22:56:22.180Z,27.02
2017-09-23T22:58:51.427Z,24.40
2017-09-23T23:01:20.677Z,24.70
2017-09-23T23:03:50.111Z,26.80
2017-09-23T23:06:20.126Z,21.73
2017-09-23T23:08:49.411Z,25.30
2017-09-23T23:11:18.663Z,22.62
2017-09-23T23:13:47.967Z,25.92
2017-09-23T23:16:17.238Z,24.50
2017-09-23T23:18:47.256Z,24.50
2017-09-23T23:21:16.544Z,26.02
2017-09-23T23:23:46.575Z,23.67
2017-09-23T23:26:16.613Z,23.00
2017-09-23T23:28:46.731Z,20.50
2017-09-23T23:31:15.987Z,24.87
2017-09-23T23:33:45.234Z,24.45
2017-09-23T23:36:14.643Z,25.42
2017-09-23T23:38:43.911Z,21.50
2017-09-23T23:41:13.938Z,20.50
2017-09-23T23:43:43.977Z,22.00
2017-09-23T23:46:13.243Z,21.05
2017-09-23T23:48:43.283Z,23.23
2017-09-23T23:51:12.540Z,21.98
2017-09-23T23:53:41.810Z,22.10
2017-09-23T23:56:12.686Z,20.33
2017-09-23T23:58:41.935Z,24.92
